sensor_id;sensor_type;location;lat;lon;timestamp;P1;durP1;ratioP1;P2;durP2;ratioP2
69047;SDS011;56119;50.118;8.642;2024-03-17T00:01:35;8.07;;;4.95;;
69047;SDS011;56119;50.118;8.642;2024-03-17T00:04:01;7.07;;;4.97;;
69047;SDS011;56119;50.118;8.642;2024-03-17T00:06:27;10.50;;;5.65;;
69047;SDS011;56119;50.118;8.642;2024-03-17T00:08:53;7.43;;;5.25;;
69047;SDS011;56119;50.118;8.642;2024-03-17T00:11:20;6.78;;;4.85;;
69047;SDS011;56119;50.118;8.642;2024-03-17T00:13:46;8.13;;;5.30;;
69047;SDS011;56119;50.118;8.642;2024-03-17T00:16:12;7.82;;;5.15;;
69047;SDS011;56119;50.118;8.642;2024-03-17T00:18:38;9.05;;;5.50;;
69047;SDS011;56119;50.118;8.642;2024-03-17T00:21:05;6.97;;;5.68;;
69047;SDS011;56119;50.118;8.642;2024-03-17T00:23:31;7.45;;;5.85;;
69047;SDS011;56119;50.118;8.642;2024-03-17T00:25:57;10.23;;;5.38;;
69047;SDS011;56119;50.118;8.642;2024-03-17T00:28:23;7.50;;;5.78;;
69047;SDS011;56119;50.118;8.642;2024-03-17T00:30:50;10.05;;;5.85;;
69047;SDS011;56119;50.118;8.642;2024-03-17T00:33:16;7.45;;;5.70;;
69047;SDS011;56119;50.118;8.642;2024-03-17T00:35:44;7.38;;;5.45;;
69047;SDS011;56119;50.118;8.642;2024-03-17T00:38:10;7.22;;;4.97;;
69047;SDS011;56119;50.118;8.642;2024-03-17T00:40:37;7.97;;;4.93;;
69047;SDS011;56119;50.118;8.642;2024-03-17T00:43:03;6.97;;;4.63;;
69047;SDS011;56119;50.118;8.642;2024-03-17T00:45:29;6.97;;;4.50;;
69047;SDS011;56119;50.118;8.642;2024-03-17T00:47:55;6.57;;;4.47;;
69047;SDS011;56119;50.118;8.642;2024-03-17T00:50:21;8.02;;;5.07;;
69047;SDS011;56119;50.118;8.642;2024-03-17T00:52:47;8.30;;;4.70;;
69047;SDS011;56119;50.118;8.642;2024-03-17T00:55:13;6.97;;;4.60;;
69047;SDS011;56119;50.118;8.642;2024-03-17T00:57:39;8.27;;;4.43;;
69047;SDS011;56119;50.118;8.642;2024-03-17T01:00:05;6.63;;;4.25;;
69047;SDS011;56119;50.118;8.642;2024-03-17T01:02:32;7.85;;;4.53;;
69047;SDS011;56119;50.118;8.642;2024-03-17T01:04:58;9.40;;;5.45;;
69047;SDS011;56119;50.118;8.642;2024-03-17T01:07:24;7.28;;;4.30;;
69047;SDS011;56119;50.118;8.642;2024-03-17T01:09:50;6.13;;;4.18;;
69047;SDS011;56119;50.118;8.642;2024-03-17T01:12:16;6.20;;;4.13;;
69047;SDS011;56119;50.118;8.642;2024-03-17T01:14:43;8.38;;;5.03;;
69047;SDS011;56119;50.118;8.642;2024-03-17T01:17:09;9.60;;;4.22;;
69047;SDS011;56119;50.118;8.642;2024-03-17T01:19:35;9.75;;;5.05;;
69047;SDS011;56119;50.118;8.642;2024-03-17T01:22:01;5.93;;;4.45;;
69047;SDS011;56119;50.118;8.642;2024-03-17T01:24:27;6.88;;;4.88;;
69047;SDS011;56119;50.118;8.642;2024-03-17T01:26:59;9.75;;;4.90;;
69047;SDS011;56119;50.118;8.642;2024-03-17T01:29:25;9.38;;;5.38;;
69047;SDS011;56119;50.118;8.642;2024-03-17T01:31:51;7.10;;;4.93;;
69047;SDS011;56119;50.118;8.642;2024-03-17T01:34:18;6.55;;;4.60;;
69047;SDS011;56119;50.118;8.642;2024-03-17T01:36:44;9.65;;;5.13;;
69047;SDS011;56119;50.118;8.642;2024-03-17T01:39:10;7.97;;;5.03;;
69047;SDS011;56119;50.118;8.642;2024-03-17T01:41:36;8.75;;;4.90;;
69047;SDS011;56119;50.118;8.642;2024-03-17T01:44:02;8.13;;;5.38;;
69047;SDS011;56119;50.118;8.642;2024-03-17T01:46:28;8.70;;;5.68;;
69047;SDS011;56119;50.118;8.642;2024-03-17T01:48:55;6.93;;;5.57;;
69047;SDS011;56119;50.118;8.642;2024-03-17T01:51:22;9.13;;;5.75;;
69047;SDS011;56119;50.118;8.642;2024-03-17T01:53:48;10.35;;;5.85;;
69047;SDS011;56119;50.118;8.642;2024-03-17T01:56:14;10.80;;;7.93;;
69047;SDS011;56119;50.118;8.642;2024-03-17T01:58:42;7.72;;;6.05;;
69047;SDS011;56119;50.118;8.642;2024-03-17T02:01:09;6.65;;;5.80;;
69047;SDS011;56119;50.118;8.642;2024-03-17T02:03:35;7.93;;;5.93;;
69047;SDS011;56119;50.118;8.642;2024-03-17T02:06:01;8.40;;;6.00;;
69047;SDS011;56119;50.118;8.642;2024-03-17T02:08:28;9.82;;;6.45;;
69047;SDS011;56119;50.118;8.642;2024-03-17T02:10:55;10.68;;;6.95;;
69047;SDS011;56119;50.118;8.642;2024-03-17T02:13:21;9.38;;;6.57;;
69047;SDS011;56119;50.118;8.642;2024-03-17T02:15:47;8.38;;;6.38;;
69047;SDS011;56119;50.118;8.642;2024-03-17T02:18:13;8.95;;;6.55;;
69047;SDS011;56119;50.118;8.642;2024-03-17T02:20:39;8.93;;;7.05;;
69047;SDS011;56119;50.118;8.642;2024-03-17T02:23:23;11.82;;;7.82;;
69047;SDS011;56119;50.118;8.642;2024-03-17T02:25:51;11.60;;;7.25;;
69047;SDS011;56119;50.118;8.642;2024-03-17T02:28:17;12.13;;;6.68;;
69047;SDS011;56119;50.118;8.642;2024-03-17T02:30:44;9.63;;;6.60;;
69047;SDS011;56119;50.118;8.642;2024-03-17T02:33:10;10.18;;;7.25;;
69047;SDS011;56119;50.118;8.642;2024-03-17T02:35:36;9.43;;;7.00;;
69047;SDS011;56119;50.118;8.642;2024-03-17T02:38:02;10.43;;;7.05;;
69047;SDS011;56119;50.118;8.642;2024-03-17T02:40:28;9.40;;;6.40;;
69047;SDS011;56119;50.118;8.642;2024-03-17T02:42:53;8.52;;;6.82;;
69047;SDS011;56119;50.118;8.642;2024-03-17T02:45:20;8.65;;;7.28;;
69047;SDS011;56119;50.118;8.642;2024-03-17T02:47:46;10.52;;;6.82;;
69047;SDS011;56119;50.118;8.642;2024-03-17T02:50:13;11.75;;;7.60;;
69047;SDS011;56119;50.118;8.642;2024-03-17T02:52:39;11.63;;;7.88;;
69047;SDS011;56119;50.118;8.642;2024-03-17T02:55:05;12.70;;;8.55;;
69047;SDS011;56119;50.118;8.642;2024-03-17T02:57:31;13.90;;;8.18;;
69047;SDS011;56119;50.118;8.642;2024-03-17T03:00:00;11.65;;;8.05;;
69047;SDS011;56119;50.118;8.642;2024-03-17T03:02:29;10.57;;;8.05;;
69047;SDS011;56119;50.118;8.642;2024-03-17T03:04:55;10.48;;;7.85;;
69047;SDS011;56119;50.118;8.642;2024-03-17T03:07:21;12.32;;;7.78;;
69047;SDS011;56119;50.118;8.642;2024-03-17T03:09:47;12.95;;;7.90;;
69047;SDS011;56119;50.118;8.642;2024-03-17T03:12:14;10.35;;;7.40;;
69047;SDS011;56119;50.118;8.642;2024-03-17T03:14:40;12.18;;;7.90;;
69047;SDS011;56119;50.118;8.642;2024-03-17T03:17:06;12.65;;;7.60;;
69047;SDS011;56119;50.118;8.642;2024-03-17T03:19:33;11.57;;;7.65;;
69047;SDS011;56119;50.118;8.642;2024-03-17T03:21:59;13.23;;;8.32;;
69047;SDS011;56119;50.118;8.642;2024-03-17T03:24:25;14.35;;;8.82;;
69047;SDS011;56119;50.118;8.642;2024-03-17T03:26:51;14.43;;;8.38;;
69047;SDS011;56119;50.118;8.642;2024-03-17T03:29:17;14.30;;;7.85;;
69047;SDS011;56119;50.118;8.642;2024-03-17T03:31:44;15.77;;;8.90;;
69047;SDS011;56119;50.118;8.642;2024-03-17T03:34:10;13.77;;;8.32;;
69047;SDS011;56119;50.118;8.642;2024-03-17T03:36:39;13.02;;;8.45;;
69047;SDS011;56119;50.118;8.642;2024-03-17T03:39:06;11.48;;;8.38;;
69047;SDS011;56119;50.118;8.642;2024-03-17T03:41:36;12.00;;;8.63;;
69047;SDS011;56119;50.118;8.642;2024-03-17T03:44:02;14.18;;;9.10;;
69047;SDS011;56119;50.118;8.642;2024-03-17T03:46:28;17.27;;;11.93;;
69047;SDS011;56119;50.118;8.642;2024-03-17T03:48:55;15.88;;;10.85;;
69047;SDS011;56119;50.118;8.642;2024-03-17T03:51:21;13.30;;;9.63;;
69047;SDS011;56119;50.118;8.642;2024-03-17T03:53:47;13.13;;;9.00;;
69047;SDS011;56119;50.118;8.642;2024-03-17T03:56:13;11.93;;;8.00;;
69047;SDS011;56119;50.118;8.642;2024-03-17T03:58:40;10.27;;;7.90;;
69047;SDS011;56119;50.118;8.642;2024-03-17T04:01:07;10.68;;;8.30;;
69047;SDS011;56119;50.118;8.642;2024-03-17T04:03:36;14.18;;;8.75;;
69047;SDS011;56119;50.118;8.642;2024-03-17T04:06:02;10.45;;;8.27;;
69047;SDS011;56119;50.118;8.642;2024-03-17T04:08:29;11.10;;;8.25;;
69047;SDS011;56119;50.118;8.642;2024-03-17T04:10:55;10.30;;;8.18;;
69047;SDS011;56119;50.118;8.642;2024-03-17T04:13:22;13.43;;;8.82;;
69047;SDS011;56119;50.118;8.642;2024-03-17T04:15:48;12.30;;;8.15;;
69047;SDS011;56119;50.118;8.642;2024-03-17T04:18:14;10.02;;;8.35;;
69047;SDS011;56119;50.118;8.642;2024-03-17T04:20:43;10.65;;;8.57;;
69047;SDS011;56119;50.118;8.642;2024-03-17T04:23:09;13.70;;;8.23;;
69047;SDS011;56119;50.118;8.642;2024-03-17T04:25:35;11.70;;;8.77;;
69047;SDS011;56119;50.118;8.642;2024-03-17T04:28:02;11.75;;;7.82;;
69047;SDS011;56119;50.118;8.642;2024-03-17T04:30:29;10.07;;;8.20;;
69047;SDS011;56119;50.118;8.642;2024-03-17T04:32:56;10.95;;;8.20;;
69047;SDS011;56119;50.118;8.642;2024-03-17T04:35:22;12.40;;;8.23;;
69047;SDS011;56119;50.118;8.642;2024-03-17T04:37:48;10.43;;;8.20;;
69047;SDS011;56119;50.118;8.642;2024-03-17T04:40:14;10.48;;;8.57;;
69047;SDS011;56119;50.118;8.642;2024-03-17T04:42:40;12.55;;;8.88;;
69047;SDS011;56119;50.118;8.642;2024-03-17T04:45:06;11.20;;;8.73;;
69047;SDS011;56119;50.118;8.642;2024-03-17T04:47:34;12.82;;;9.40;;
69047;SDS011;56119;50.118;8.642;2024-03-17T04:50:00;12.07;;;8.52;;
69047;SDS011;56119;50.118;8.642;2024-03-17T04:52:26;11.07;;;8.52;;
69047;SDS011;56119;50.118;8.642;2024-03-17T04:54:52;12.82;;;8.63;;
69047;SDS011;56119;50.118;8.642;2024-03-17T04:57:18;13.70;;;9.13;;
69047;SDS011;56119;50.118;8.642;2024-03-17T04:59:44;9.18;;;8.13;;
69047;SDS011;56119;50.118;8.642;2024-03-17T05:02:10;11.57;;;8.40;;
69047;SDS011;56119;50.118;8.642;2024-03-17T05:04:36;12.00;;;8.80;;
69047;SDS011;56119;50.118;8.642;2024-03-17T05:07:02;13.57;;;8.82;;
69047;SDS011;56119;50.118;8.642;2024-03-17T05:09:28;11.52;;;9.10;;
69047;SDS011;56119;50.118;8.642;2024-03-17T05:11:54;11.30;;;8.82;;
69047;SDS011;56119;50.118;8.642;2024-03-17T05:14:20;11.43;;;8.30;;
69047;SDS011;56119;50.118;8.642;2024-03-17T05:16:50;13.27;;;8.52;;
69047;SDS011;56119;50.118;8.642;2024-03-17T05:19:16;10.20;;;8.45;;
69047;SDS011;56119;50.118;8.642;2024-03-17T05:21:42;11.98;;;8.73;;
69047;SDS011;56119;50.118;8.642;2024-03-17T05:24:09;11.90;;;8.85;;
69047;SDS011;56119;50.118;8.642;2024-03-17T05:26:36;11.68;;;8.40;;
69047;SDS011;56119;50.118;8.642;2024-03-17T05:29:02;9.55;;;7.95;;
69047;SDS011;56119;50.118;8.642;2024-03-17T05:31:28;10.80;;;8.05;;
69047;SDS011;56119;50.118;8.642;2024-03-17T05:33:56;13.68;;;8.70;;
69047;SDS011;56119;50.118;8.642;2024-03-17T05:36:22;11.07;;;8.57;;
69047;SDS011;56119;50.118;8.642;2024-03-17T05:38:48;10.75;;;8.68;;
69047;SDS011;56119;50.118;8.642;2024-03-17T05:41:14;13.45;;;8.63;;
69047;SDS011;56119;50.118;8.642;2024-03-17T05:43:40;9.23;;;7.75;;
69047;SDS011;56119;50.118;8.642;2024-03-17T05:46:07;10.63;;;8.38;;
69047;SDS011;56119;50.118;8.642;2024-03-17T05:48:33;10.77;;;8.50;;
69047;SDS011;56119;50.118;8.642;2024-03-17T05:51:02;16.15;;;8.80;;
69047;SDS011;56119;50.118;8.642;2024-03-17T05:53:28;11.00;;;8.75;;
69047;SDS011;56119;50.118;8.642;2024-03-17T05:55:56;9.98;;;8.55;;
69047;SDS011;56119;50.118;8.642;2024-03-17T05:58:23;10.80;;;8.70;;
69047;SDS011;56119;50.118;8.642;2024-03-17T06:00:49;11.85;;;9.30;;
69047;SDS011;56119;50.118;8.642;2024-03-17T06:03:15;12.25;;;9.30;;
69047;SDS011;56119;50.118;8.642;2024-03-17T06:05:42;12.80;;;8.65;;
69047;SDS011;56119;50.118;8.642;2024-03-17T06:08:10;10.23;;;8.50;;
69047;SDS011;56119;50.118;8.642;2024-03-17T06:10:37;12.02;;;8.80;;
69047;SDS011;56119;50.118;8.642;2024-03-17T06:13:03;13.15;;;9.70;;
69047;SDS011;56119;50.118;8.642;2024-03-17T06:15:30;12.20;;;9.65;;
69047;SDS011;56119;50.118;8.642;2024-03-17T06:17:56;11.23;;;8.98;;
69047;SDS011;56119;50.118;8.642;2024-03-17T06:20:25;14.20;;;9.52;;
69047;SDS011;56119;50.118;8.642;2024-03-17T06:22:55;12.32;;;10.02;;
69047;SDS011;56119;50.118;8.642;2024-03-17T06:25:21;14.75;;;9.13;;
69047;SDS011;56119;50.118;8.642;2024-03-17T06:27:51;13.90;;;9.95;;
69047;SDS011;56119;50.118;8.642;2024-03-17T06:30:17;11.23;;;8.50;;
69047;SDS011;56119;50.118;8.642;2024-03-17T06:32:43;13.02;;;9.57;;
69047;SDS011;56119;50.118;8.642;2024-03-17T06:35:13;11.68;;;8.90;;
69047;SDS011;56119;50.118;8.642;2024-03-17T06:37:40;14.27;;;8.48;;
69047;SDS011;56119;50.118;8.642;2024-03-17T06:40:06;11.15;;;8.50;;
69047;SDS011;56119;50.118;8.642;2024-03-17T06:42:32;13.73;;;8.55;;
69047;SDS011;56119;50.118;8.642;2024-03-17T06:44:58;11.55;;;8.30;;
69047;SDS011;56119;50.118;8.642;2024-03-17T06:47:24;10.75;;;8.38;;
69047;SDS011;56119;50.118;8.642;2024-03-17T06:49:50;10.40;;;8.65;;
69047;SDS011;56119;50.118;8.642;2024-03-17T06:52:16;9.80;;;8.43;;
69047;SDS011;56119;50.118;8.642;2024-03-17T06:54:42;11.02;;;7.78;;
69047;SDS011;56119;50.118;8.642;2024-03-17T06:57:08;12.63;;;8.60;;
69047;SDS011;56119;50.118;8.642;2024-03-17T06:59:34;11.80;;;8.23;;
69047;SDS011;56119;50.118;8.642;2024-03-17T07:02:00;9.98;;;8.15;;
69047;SDS011;56119;50.118;8.642;2024-03-17T07:04:26;10.93;;;8.32;;
69047;SDS011;56119;50.118;8.642;2024-03-17T07:06:52;9.85;;;7.78;;
69047;SDS011;56119;50.118;8.642;2024-03-17T07:09:18;9.90;;;7.15;;
69047;SDS011;56119;50.118;8.642;2024-03-17T07:11:44;8.60;;;6.97;;
69047;SDS011;56119;50.118;8.642;2024-03-17T07:14:10;9.35;;;7.15;;
69047;SDS011;56119;50.118;8.642;2024-03-17T07:16:36;9.25;;;7.47;;
69047;SDS011;56119;50.118;8.642;2024-03-17T07:19:02;9.55;;;6.60;;
69047;SDS011;56119;50.118;8.642;2024-03-17T07:21:29;8.98;;;6.60;;
69047;SDS011;56119;50.118;8.642;2024-03-17T07:23:56;7.68;;;6.65;;
69047;SDS011;56119;50.118;8.642;2024-03-17T07:26:24;8.75;;;6.90;;
69047;SDS011;56119;50.118;8.642;2024-03-17T07:28:50;10.13;;;7.03;;
69047;SDS011;56119;50.118;8.642;2024-03-17T07:31:16;9.75;;;6.40;;
69047;SDS011;56119;50.118;8.642;2024-03-17T07:33:42;8.68;;;6.80;;
69047;SDS011;56119;50.118;8.642;2024-03-17T07:36:08;8.80;;;6.50;;
69047;SDS011;56119;50.118;8.642;2024-03-17T07:38:36;8.23;;;6.55;;
69047;SDS011;56119;50.118;8.642;2024-03-17T07:41:03;9.57;;;6.20;;
69047;SDS011;56119;50.118;8.642;2024-03-17T07:43:30;9.27;;;6.53;;
69047;SDS011;56119;50.118;8.642;2024-03-17T07:46:10;6.93;;;5.47;;
69047;SDS011;56119;50.118;8.642;2024-03-17T07:48:42;7.93;;;5.82;;
69047;SDS011;56119;50.118;8.642;2024-03-17T07:51:17;9.52;;;6.38;;
69047;SDS011;56119;50.118;8.642;2024-03-17T07:53:44;12.55;;;7.80;;
69047;SDS011;56119;50.118;8.642;2024-03-17T07:56:14;7.93;;;6.55;;
69047;SDS011;56119;50.118;8.642;2024-03-17T07:58:41;8.65;;;6.45;;
69047;SDS011;56119;50.118;8.642;2024-03-17T08:01:14;9.57;;;6.22;;
69047;SDS011;56119;50.118;8.642;2024-03-17T08:03:41;11.05;;;6.05;;
69047;SDS011;56119;50.118;8.642;2024-03-17T08:06:09;7.90;;;6.03;;
69047;SDS011;56119;50.118;8.642;2024-03-17T08:08:38;8.45;;;5.70;;
69047;SDS011;56119;50.118;8.642;2024-03-17T08:11:04;8.02;;;5.22;;
69047;SDS011;56119;50.118;8.642;2024-03-17T08:13:31;7.75;;;5.07;;
69047;SDS011;56119;50.118;8.642;2024-03-17T08:16:00;6.45;;;5.00;;
69047;SDS011;56119;50.118;8.642;2024-03-17T08:18:27;8.75;;;5.03;;
69047;SDS011;56119;50.118;8.642;2024-03-17T08:20:53;8.25;;;5.22;;
69047;SDS011;56119;50.118;8.642;2024-03-17T08:23:20;7.95;;;4.55;;
69047;SDS011;56119;50.118;8.642;2024-03-17T08:25:55;7.53;;;5.05;;
69047;SDS011;56119;50.118;8.642;2024-03-17T08:28:22;6.90;;;5.07;;
69047;SDS011;56119;50.118;8.642;2024-03-17T08:30:55;8.13;;;4.70;;
69047;SDS011;56119;50.118;8.642;2024-03-17T08:33:29;7.60;;;4.53;;
69047;SDS011;56119;50.118;8.642;2024-03-17T08:36:04;6.65;;;4.82;;
69047;SDS011;56119;50.118;8.642;2024-03-17T08:38:30;10.55;;;7.65;;
69047;SDS011;56119;50.118;8.642;2024-03-17T08:40:57;10.52;;;5.78;;
69047;SDS011;56119;50.118;8.642;2024-03-17T08:43:26;6.93;;;5.45;;
69047;SDS011;56119;50.118;8.642;2024-03-17T08:45:56;7.05;;;5.22;;
69047;SDS011;56119;50.118;8.642;2024-03-17T08:48:27;6.30;;;5.05;;
69047;SDS011;56119;50.118;8.642;2024-03-17T08:50:56;7.95;;;5.35;;
69047;SDS011;56119;50.118;8.642;2024-03-17T08:53:23;10.20;;;5.90;;
69047;SDS011;56119;50.118;8.642;2024-03-17T08:55:49;6.15;;;4.88;;
69047;SDS011;56119;50.118;8.642;2024-03-17T08:58:15;6.68;;;5.30;;
69047;SDS011;56119;50.118;8.642;2024-03-17T09:00:41;6.88;;;5.10;;
69047;SDS011;56119;50.118;8.642;2024-03-17T09:03:08;6.63;;;4.53;;
69047;SDS011;56119;50.118;8.642;2024-03-17T09:05:38;7.88;;;5.25;;
69047;SDS011;56119;50.118;8.642;2024-03-17T09:08:04;6.75;;;5.13;;
69047;SDS011;56119;50.118;8.642;2024-03-17T09:10:38;6.03;;;4.57;;
69047;SDS011;56119;50.118;8.642;2024-03-17T09:13:04;6.60;;;4.50;;
69047;SDS011;56119;50.118;8.642;2024-03-17T09:15:30;6.97;;;4.47;;
69047;SDS011;56119;50.118;8.642;2024-03-17T09:17:56;7.00;;;4.78;;
69047;SDS011;56119;50.118;8.642;2024-03-17T09:20:22;4.65;;;4.13;;
69047;SDS011;56119;50.118;8.642;2024-03-17T09:22:48;6.50;;;5.05;;
69047;SDS011;56119;50.118;8.642;2024-03-17T09:25:14;6.38;;;4.32;;
69047;SDS011;56119;50.118;8.642;2024-03-17T09:27:40;6.18;;;4.68;;
69047;SDS011;56119;50.118;8.642;2024-03-17T09:30:06;7.07;;;4.90;;
69047;SDS011;56119;50.118;8.642;2024-03-17T09:32:37;4.80;;;4.30;;
69047;SDS011;56119;50.118;8.642;2024-03-17T09:35:03;6.50;;;4.50;;
69047;SDS011;56119;50.118;8.642;2024-03-17T09:37:30;5.43;;;4.35;;
69047;SDS011;56119;50.118;8.642;2024-03-17T09:39:57;6.13;;;4.45;;
69047;SDS011;56119;50.118;8.642;2024-03-17T09:42:25;7.30;;;5.47;;
69047;SDS011;56119;50.118;8.642;2024-03-17T09:44:52;13.02;;;10.68;;
69047;SDS011;56119;50.118;8.642;2024-03-17T09:47:21;7.57;;;5.30;;
69047;SDS011;56119;50.118;8.642;2024-03-17T09:49:48;5.05;;;4.50;;
69047;SDS011;56119;50.118;8.642;2024-03-17T09:54:48;6.63;;;3.88;;
69047;SDS011;56119;50.118;8.642;2024-03-17T09:57:15;6.45;;;4.13;;
69047;SDS011;56119;50.118;8.642;2024-03-17T09:59:42;7.88;;;3.85;;
69047;SDS011;56119;50.118;8.642;2024-03-17T10:02:13;6.72;;;4.05;;
69047;SDS011;56119;50.118;8.642;2024-03-17T10:04:42;5.25;;;3.78;;
69047;SDS011;56119;50.118;8.642;2024-03-17T10:07:08;4.78;;;4.03;;
69047;SDS011;56119;50.118;8.642;2024-03-17T10:09:33;4.80;;;3.92;;
69047;SDS011;56119;50.118;8.642;2024-03-17T10:11:59;5.53;;;4.32;;
69047;SDS011;56119;50.118;8.642;2024-03-17T10:14:25;5.00;;;3.97;;
69047;SDS011;56119;50.118;8.642;2024-03-17T10:16:51;5.03;;;3.95;;
69047;SDS011;56119;50.118;8.642;2024-03-17T10:19:21;4.93;;;3.75;;
69047;SDS011;56119;50.118;8.642;2024-03-17T10:21:48;5.72;;;3.97;;
69047;SDS011;56119;50.118;8.642;2024-03-17T10:24:21;5.57;;;4.10;;
69047;SDS011;56119;50.118;8.642;2024-03-17T10:26:54;5.30;;;4.00;;
69047;SDS011;56119;50.118;8.642;2024-03-17T10:29:21;6.78;;;4.40;;
69047;SDS011;56119;50.118;8.642;2024-03-17T10:31:49;6.28;;;4.15;;
69047;SDS011;56119;50.118;8.642;2024-03-17T10:34:15;5.72;;;4.13;;
69047;SDS011;56119;50.118;8.642;2024-03-17T10:36:43;7.63;;;4.05;;
69047;SDS011;56119;50.118;8.642;2024-03-17T10:39:27;6.00;;;3.53;;
69047;SDS011;56119;50.118;8.642;2024-03-17T10:41:57;5.88;;;4.22;;
69047;SDS011;56119;50.118;8.642;2024-03-17T10:44:25;5.63;;;4.20;;
69047;SDS011;56119;50.118;8.642;2024-03-17T10:46:52;5.05;;;3.92;;
69047;SDS011;56119;50.118;8.642;2024-03-17T10:49:20;5.57;;;4.32;;
69047;SDS011;56119;50.118;8.642;2024-03-17T10:51:46;4.85;;;3.75;;
69047;SDS011;56119;50.118;8.642;2024-03-17T10:54:16;7.55;;;4.68;;
69047;SDS011;56119;50.118;8.642;2024-03-17T10:56:50;5.85;;;4.10;;
69047;SDS011;56119;50.118;8.642;2024-03-17T10:59:16;3.88;;;3.47;;
69047;SDS011;56119;50.118;8.642;2024-03-17T11:01:47;7.10;;;3.65;;
69047;SDS011;56119;50.118;8.642;2024-03-17T11:04:13;4.50;;;3.60;;
69047;SDS011;56119;50.118;8.642;2024-03-17T11:06:40;5.10;;;3.83;;
69047;SDS011;56119;50.118;8.642;2024-03-17T11:09:07;4.68;;;3.30;;
69047;SDS011;56119;50.118;8.642;2024-03-17T11:11:38;6.43;;;3.90;;
69047;SDS011;56119;50.118;8.642;2024-03-17T11:14:16;4.32;;;3.65;;
69047;SDS011;56119;50.118;8.642;2024-03-17T11:16:43;6.07;;;3.65;;
69047;SDS011;56119;50.118;8.642;2024-03-17T11:19:12;7.63;;;4.22;;
69047;SDS011;56119;50.118;8.642;2024-03-17T11:21:40;4.10;;;3.35;;
69047;SDS011;56119;50.118;8.642;2024-03-17T11:24:06;5.45;;;3.72;;
69047;SDS011;56119;50.118;8.642;2024-03-17T11:26:33;3.63;;;3.33;;
69047;SDS011;56119;50.118;8.642;2024-03-17T11:29:03;7.00;;;3.70;;
69047;SDS011;56119;50.118;8.642;2024-03-17T11:31:44;6.43;;;3.50;;
69047;SDS011;56119;50.118;8.642;2024-03-17T11:34:38;4.78;;;3.70;;
69047;SDS011;56119;50.118;8.642;2024-03-17T11:40:24;5.70;;;3.53;;
69047;SDS011;56119;50.118;8.642;2024-03-17T11:43:01;6.78;;;3.53;;
69047;SDS011;56119;50.118;8.642;2024-03-17T11:45:32;6.13;;;4.18;;
69047;SDS011;56119;50.118;8.642;2024-03-17T11:48:01;7.07;;;4.28;;
69047;SDS011;56119;50.118;8.642;2024-03-17T11:53:26;5.22;;;3.97;;
69047;SDS011;56119;50.118;8.642;2024-03-17T11:55:55;5.78;;;3.75;;
69047;SDS011;56119;50.118;8.642;2024-03-17T11:58:22;5.85;;;3.85;;
69047;SDS011;56119;50.118;8.642;2024-03-17T12:00:53;6.93;;;3.97;;
69047;SDS011;56119;50.118;8.642;2024-03-17T12:03:23;7.43;;;4.28;;
69047;SDS011;56119;50.118;8.642;2024-03-17T12:05:54;7.47;;;4.78;;
69047;SDS011;56119;50.118;8.642;2024-03-17T12:08:23;5.82;;;3.80;;
69047;SDS011;56119;50.118;8.642;2024-03-17T12:10:55;6.63;;;4.28;;
69047;SDS011;56119;50.118;8.642;2024-03-17T12:13:22;6.85;;;4.47;;
69047;SDS011;56119;50.118;8.642;2024-03-17T12:15:48;7.05;;;4.70;;
69047;SDS011;56119;50.118;8.642;2024-03-17T12:18:20;6.55;;;4.80;;
69047;SDS011;56119;50.118;8.642;2024-03-17T12:20:54;6.28;;;4.65;;
69047;SDS011;56119;50.118;8.642;2024-03-17T12:23:20;5.10;;;3.90;;
69047;SDS011;56119;50.118;8.642;2024-03-17T12:25:48;5.68;;;3.97;;
69047;SDS011;56119;50.118;8.642;2024-03-17T12:28:17;5.25;;;4.35;;
69047;SDS011;56119;50.118;8.642;2024-03-17T12:30:46;6.32;;;4.50;;
69047;SDS011;56119;50.118;8.642;2024-03-17T12:33:12;6.43;;;4.15;;
69047;SDS011;56119;50.118;8.642;2024-03-17T12:35:38;7.03;;;4.53;;
69047;SDS011;56119;50.118;8.642;2024-03-17T12:40:52;5.15;;;4.00;;
69047;SDS011;56119;50.118;8.642;2024-03-17T12:43:18;8.48;;;4.50;;
69047;SDS011;56119;50.118;8.642;2024-03-17T12:45:45;5.53;;;4.88;;
69047;SDS011;56119;50.118;8.642;2024-03-17T12:48:15;6.47;;;4.28;;
69047;SDS011;56119;50.118;8.642;2024-03-17T12:50:45;5.88;;;4.38;;
69047;SDS011;56119;50.118;8.642;2024-03-17T12:53:15;7.22;;;4.53;;
69047;SDS011;56119;50.118;8.642;2024-03-17T12:55:42;7.88;;;4.90;;
69047;SDS011;56119;50.118;8.642;2024-03-17T12:58:27;7.63;;;4.65;;
69047;SDS011;56119;50.118;8.642;2024-03-17T13:01:19;5.85;;;3.97;;
69047;SDS011;56119;50.118;8.642;2024-03-17T13:03:45;9.32;;;4.40;;
69047;SDS011;56119;50.118;8.642;2024-03-17T13:06:20;6.88;;;4.63;;
69047;SDS011;56119;50.118;8.642;2024-03-17T13:08:49;5.95;;;4.78;;
69047;SDS011;56119;50.118;8.642;2024-03-17T13:11:15;6.05;;;4.75;;
69047;SDS011;56119;50.118;8.642;2024-03-17T13:13:41;8.15;;;5.57;;
69047;SDS011;56119;50.118;8.642;2024-03-17T13:16:07;8.43;;;5.80;;
69047;SDS011;56119;50.118;8.642;2024-03-17T13:18:33;8.90;;;5.40;;
69047;SDS011;56119;50.118;8.642;2024-03-17T13:20:59;7.63;;;5.43;;
69047;SDS011;56119;50.118;8.642;2024-03-17T13:23:26;7.70;;;5.00;;
69047;SDS011;56119;50.118;8.642;2024-03-17T13:25:54;7.07;;;5.00;;
69047;SDS011;56119;50.118;8.642;2024-03-17T13:28:20;6.55;;;5.20;;
69047;SDS011;56119;50.118;8.642;2024-03-17T13:30:46;7.15;;;5.05;;
69047;SDS011;56119;50.118;8.642;2024-03-17T13:33:12;7.38;;;5.32;;
69047;SDS011;56119;50.118;8.642;2024-03-17T13:35:39;8.65;;;5.43;;
69047;SDS011;56119;50.118;8.642;2024-03-17T13:38:06;6.45;;;5.30;;
69047;SDS011;56119;50.118;8.642;2024-03-17T13:40:32;7.03;;;5.85;;
69047;SDS011;56119;50.118;8.642;2024-03-17T13:42:58;6.93;;;5.50;;
69047;SDS011;56119;50.118;8.642;2024-03-17T13:45:25;7.25;;;5.25;;
69047;SDS011;56119;50.118;8.642;2024-03-17T13:47:56;8.15;;;5.82;;
69047;SDS011;56119;50.118;8.642;2024-03-17T13:50:23;7.47;;;5.65;;
69047;SDS011;56119;50.118;8.642;2024-03-17T13:52:49;8.38;;;6.03;;
69047;SDS011;56119;50.118;8.642;2024-03-17T13:55:17;6.97;;;5.40;;
69047;SDS011;56119;50.118;8.642;2024-03-17T13:57:47;11.35;;;5.45;;
69047;SDS011;56119;50.118;8.642;2024-03-17T14:00:14;8.30;;;5.25;;
69047;SDS011;56119;50.118;8.642;2024-03-17T14:02:47;7.20;;;5.50;;
69047;SDS011;56119;50.118;8.642;2024-03-17T14:05:14;7.57;;;4.97;;
69047;SDS011;56119;50.118;8.642;2024-03-17T14:07:41;6.50;;;4.72;;
69047;SDS011;56119;50.118;8.642;2024-03-17T14:10:08;6.70;;;5.55;;
69047;SDS011;56119;50.118;8.642;2024-03-17T14:12:34;8.70;;;5.45;;
69047;SDS011;56119;50.118;8.642;2024-03-17T14:15:01;9.27;;;5.25;;
69047;SDS011;56119;50.118;8.642;2024-03-17T14:17:28;8.13;;;5.68;;
69047;SDS011;56119;50.118;8.642;2024-03-17T14:19:54;7.15;;;5.72;;
69047;SDS011;56119;50.118;8.642;2024-03-17T14:22:20;9.98;;;5.72;;
69047;SDS011;56119;50.118;8.642;2024-03-17T14:24:46;9.25;;;5.78;;
69047;SDS011;56119;50.118;8.642;2024-03-17T14:27:12;7.72;;;5.55;;
69047;SDS011;56119;50.118;8.642;2024-03-17T14:29:39;9.23;;;5.97;;
69047;SDS011;56119;50.118;8.642;2024-03-17T14:32:05;7.93;;;5.93;;
69047;SDS011;56119;50.118;8.642;2024-03-17T14:34:31;7.40;;;4.90;;
69047;SDS011;56119;50.118;8.642;2024-03-17T14:37:01;8.35;;;5.25;;
69047;SDS011;56119;50.118;8.642;2024-03-17T14:39:27;7.43;;;4.60;;
69047;SDS011;56119;50.118;8.642;2024-03-17T14:41:54;8.60;;;5.97;;
69047;SDS011;56119;50.118;8.642;2024-03-17T14:44:20;7.00;;;6.13;;
69047;SDS011;56119;50.118;8.642;2024-03-17T14:46:46;6.78;;;5.43;;
69047;SDS011;56119;50.118;8.642;2024-03-17T14:49:12;6.50;;;5.20;;
69047;SDS011;56119;50.118;8.642;2024-03-17T14:51:38;7.65;;;5.25;;
69047;SDS011;56119;50.118;8.642;2024-03-17T14:54:04;7.90;;;6.53;;
69047;SDS011;56119;50.118;8.642;2024-03-17T14:56:32;7.68;;;5.22;;